Eldon, MO (65026)

7:27 PM CDT on August 30, 2016 (GMT -0500)
Eldon MO | | Change Station

Elev 918 ft 38.35 °N, 92.57 °W | Updated 2 seconds ago

Clear
Clear
74.1 °F
Feels Like 70 °F
N
0.0
Wind Variable Wind from SSE
Gusts 0.0 mph

Today
High -- | Low -- °F
--% Chance of Precip.
Yesterday
High -- | Low -- °F
Precip. -- in
Pressure 30.11 in
Visibility 10.0 miles
Clouds Clear
Heat Index 70 °F
Dew Point 74 °F
Humidity 99%
Rainfall 1.28 in
Snow Depth Not available.
6:38 AM 7:42 PM
Waning Crescent, 2% visible
METAR KAIZ 302356Z AUTO 02003KT 10SM CLR 24/23 A3007 RMK AO2 RAE30 SLP195 P0000 6//// T02440228 10317 20244 58012
Pressure 30.11 in
Visibility 10.0 miles
Clouds Clear
Heat Index 70 °F
Dew Point 74 °F
Humidity 99%
Rainfall 1.28 in
Snow Depth Not available.
6:38 AM 7:42 PM
Waning Crescent, 2% visible
METAR KAIZ 302356Z AUTO 02003KT 10SM CLR 24/23 A3007 RMK AO2 RAE30 SLP195 P0000 6//// T02440228 10317 20244 58012

10-Day Weather Forecast

Almanac

Astronomy

Aug. 30, 2016 Rise Set
Actual Time
Civil Twilight
Nautical Twilight
Astronomical Twilight
Moon
Length of Visible Light
Length of Day
Tomorrow will be .
, % of the Moon is Illuminated

Today's Extremes

State Highs State Lows

Community

WunderPhotos

Upload Photos

1,935,961 photos uploaded!

WunderBlog® & News

Nearby

Air Quality

  Air Quality AQ Index Pollutant
Not available.

Snow Depth

Station Depth Elevation

Earthquake Activity

City Distance Mag. Time & Date
Minimum magnitude displayed is 2.5.

Coastal Water Temperatures

Place Temperature

Stations

Nearby Weather Stations

Station Location Temp. Windchill Dew Point Humidity Wind Precip. Elev Updated Type
                   

Watches & Warnings

There are currently no watches in effect.